Archiv-/Tagesdaten

--Timestamp---	Temp	Chill	HIndex	Humid	Dewpt	 Wind 	HiWind	WindDir	Rain 	Barom	Solar	 ET  	 UV 
--------------	----	-----	------	-----	-----	------	------	-------	-----	-----	-----	-----	----
20091223 00:00	1.1	1.1	1.1	85	-1.2	2	5	112	0.0	987.3	0	0.000	0.0
20091223 00:05	1.1	1.1	1.1	85	-1.1	0	5	112	0.0	987.2	0	0.000	0.0
20091223 00:10	1.1	1.1	1.1	85	-1.1	0	0	-100000	0.0	987.1	0	0.000	0.0
20091223 00:15	1.1	1.1	1.1	85	-1.1	0	5	112	0.0	987.2	0	0.000	0.0
20091223 00:20	1.1	1.1	1.1	85	-1.1	5	8	112	0.0	987.1	0	0.000	0.0
20091223 00:25	1.1	1.1	1.1	85	-1.2	3	6	315	0.0	987.3	0	0.000	0.0
20091223 00:30	1.1	1.1	1.1	85	-1.2	5	8	315	0.0	987.3	0	0.000	0.0
20091223 00:35	0.9	-1.1	0.9	85	-1.3	6	10	315	0.0	987.1	0	0.000	0.0
20091223 00:40	0.9	0.9	0.9	86	-1.2	3	6	315	0.0	987.0	0	0.000	0.0
20091223 00:45	0.8	-1.2	0.8	86	-1.2	6	8	315	0.0	986.9	0	0.000	0.0
20091223 00:50	0.8	-1.3	0.8	86	-1.3	6	11	315	0.0	987.1	0	0.000	0.0
20091223 00:55	0.7	-1.4	0.7	86	-1.4	6	10	315	0.0	987.0	0	0.000	0.0
20091223 01:00	0.7	-1.4	0.7	87	-1.2	6	10	315	0.0	987.0	0	0.000	0.0
20091223 01:05	0.6	0.6	0.6	87	-1.4	5	10	338	0.0	987.3	0	0.000	0.0
20091223 01:10	0.5	0.5	0.5	87	-1.4	3	8	338	0.0	987.5	0	0.000	0.0
20091223 01:15	0.5	0.5	0.5	87	-1.4	3	6	338	0.0	987.4	0	0.000	0.0
20091223 01:20	0.4	0.4	0.4	88	-1.3	5	11	338	0.0	987.5	0	0.000	0.0
20091223 01:25	0.4	0.4	0.4	88	-1.3	5	11	315	0.0	987.4	0	0.000	0.0
20091223 01:30	0.4	0.4	0.4	88	-1.3	3	5	315	0.0	987.4	0	0.000	0.0
20091223 01:35	0.5	0.5	0.5	88	-1.3	0	2	315	0.0	987.6	0	0.000	0.0
20091223 01:40	0.6	0.6	0.6	88	-1.2	2	5	315	0.0	987.8	0	0.000	0.0
20091223 01:45	0.6	-1.5	0.6	87	-1.4	6	10	315	0.0	988.0	0	0.000	0.0
20091223 01:50	0.6	-2.1	0.6	87	-1.4	8	14	292	0.0	988.0	0	0.000	0.0
20091223 01:55	0.6	0.6	0.6	87	-1.4	5	10	292	0.0	988.1	0	0.000	0.0
20091223 02:00	0.6	-1.5	0.6	88	-1.1	6	10	292	0.0	988.2	0	0.000	0.0
20091223 02:05	0.7	-1.4	0.7	88	-1.1	6	11	292	0.0	987.9	0	0.000	0.0
20091223 02:10	0.7	0.7	0.7	88	-1.1	5	8	292	0.0	988.0	0	0.000	0.0
20091223 02:15	0.7	0.7	0.7	88	-1.1	5	6	292	0.0	988.0	0	0.000	0.0
20091223 02:20	0.7	0.7	0.7	88	-1.1	3	6	292	0.0	987.9	0	0.000	0.0
20091223 02:25	0.7	0.7	0.7	88	-1.1	0	3	292	0.0	987.9	0	0.000	0.0
20091223 02:30	0.7	0.7	0.7	88	-1.1	2	5	292	0.0	987.9	0	0.000	0.0
20091223 02:35	0.7	0.7	0.7	89	-0.9	3	6	292	0.0	988.0	0	0.000	0.0
20091223 02:40	0.7	0.7	0.7	89	-0.9	5	6	292	0.0	988.1	0	0.000	0.0
20091223 02:45	0.7	0.7	0.7	89	-0.9	5	8	292	0.0	988.3	0	0.000	0.0
20091223 02:50	0.7	-1.4	0.7	89	-0.9	6	10	292	0.0	988.4	0	0.000	0.0
20091223 02:55	0.7	-1.4	0.7	89	-0.9	6	10	292	0.0	988.4	0	0.000	0.0
20091223 03:00	0.7	0.7	0.7	89	-0.9	3	8	292	0.0	988.4	0	0.000	0.0
20091223 03:05	0.7	0.7	0.7	90	-0.8	5	8	248	0.0	988.7	0	0.000	0.0
20091223 03:10	0.7	-1.4	0.7	90	-0.8	6	10	248	0.0	988.6	0	0.000	0.0
20091223 03:15	0.7	-1.4	0.7	90	-0.8	6	8	248	0.2	988.6	0	0.000	0.0
20091223 03:20	0.7	0.7	0.7	90	-0.8	5	6	248	0.0	988.7	0	0.000	0.0
20091223 03:25	0.7	0.7	0.7	90	-0.8	3	6	248	0.0	988.8	0	0.000	0.0
20091223 03:30	0.7	0.7	0.7	90	-0.8	3	6	248	0.0	988.8	0	0.000	0.0
20091223 03:35	0.7	0.7	0.7	91	-0.6	3	8	248	0.0	988.9	0	0.000	0.0
20091223 03:40	0.7	0.7	0.7	91	-0.6	3	6	248	0.2	988.9	0	0.000	0.0
20091223 03:45	0.7	0.7	0.7	91	-0.6	3	6	248	0.0	989.0	0	0.000	0.0
20091223 03:50	0.7	0.7	0.7	91	-0.6	2	5	248	0.0	989.1	0	0.000	0.0
20091223 03:55	0.8	0.8	0.8	91	-0.5	2	5	248	0.0	989.0	0	0.000	0.0
20091223 04:00	0.8	0.8	0.8	91	-0.5	2	3	248	0.2	989.1	0	0.000	0.0
20091223 04:05	0.8	0.8	0.8	91	-0.5	0	2	248	0.0	989.4	0	0.000	0.0
20091223 04:10	0.8	0.8	0.8	91	-0.5	2	3	248	0.2	989.5	0	0.000	0.0
20091223 04:15	0.8	0.8	0.8	91	-0.5	2	3	248	0.0	989.6	0	0.000	0.0
20091223 04:20	0.9	0.9	0.9	91	-0.4	0	3	248	0.2	989.6	0	0.000	0.0
20091223 04:25	0.9	0.9	0.9	92	-0.2	2	3	248	0.2	989.7	0	0.000	0.0
20091223 04:30	1.0	1.0	1.0	92	-0.2	0	3	248	0.2	989.7	0	0.000	0.0
20091223 04:35	1.1	1.1	1.1	92	-0.1	2	3	248	0.2	989.8	0	0.000	0.0
20091223 04:40	1.1	1.1	1.1	91	-0.2	2	3	248	0.2	989.8	0	0.000	0.0
20091223 04:45	1.1	1.1	1.1	92	-0.1	0	2	248	0.2	989.8	0	0.000	0.0
20091223 04:50	1.1	1.1	1.1	92	-0.1	2	3	248	0.2	989.7	0	0.000	0.0
20091223 04:55	1.1	1.1	1.1	92	-0.0	0	3	248	0.2	989.8	0	0.000	0.0
20091223 05:00	1.1	1.1	1.1	92	-0.0	2	3	248	0.2	989.9	0	0.000	0.0
20091223 05:05	1.2	1.2	1.2	92	0.0	3	5	248	0.2	990.0	0	0.000	0.0
20091223 05:10	1.2	1.2	1.2	92	0.0	2	6	248	0.0	990.0	0	0.000	0.0
20091223 05:15	1.2	1.2	1.2	92	0.0	2	5	248	0.2	990.1	0	0.000	0.0
20091223 05:20	1.2	1.2	1.2	92	0.1	2	3	248	0.2	990.1	0	0.000	0.0
20091223 05:25	1.3	1.3	1.3	92	0.1	2	3	248	0.0	990.3	0	0.000	0.0
20091223 05:30	1.3	1.3	1.3	92	0.2	2	5	248	0.0	990.4	0	0.000	0.0
20091223 05:35	1.3	1.3	1.3	92	0.2	3	5	248	0.2	990.6	0	0.000	0.0
20091223 05:40	1.3	1.3	1.3	92	0.2	2	3	248	0.0	990.7	0	0.000	0.0
20091223 05:45	1.3	1.3	1.3	92	0.2	2	3	248	0.0	990.7	0	0.000	0.0
20091223 05:50	1.3	1.3	1.3	92	0.2	0	3	248	0.0	990.9	0	0.000	0.0
20091223 05:55	1.3	1.3	1.3	92	0.2	2	3	248	0.2	991.0	0	0.000	0.0
20091223 06:00	1.5	1.5	1.5	93	0.5	0	3	248	0.0	990.9	0	0.000	0.0
20091223 06:05	1.6	1.6	1.6	93	0.5	0	3	248	0.0	990.9	0	0.000	0.0
20091223 06:10	1.7	1.7	1.7	93	0.7	2	5	248	0.0	990.9	0	0.000	0.0
20091223 06:15	1.7	1.7	1.7	93	0.7	2	5	248	0.0	991.0	0	0.000	0.0
20091223 06:20	1.8	1.8	1.8	93	0.8	3	5	248	0.0	991.2	0	0.000	0.0
20091223 06:25	1.9	1.9	1.9	93	0.9	3	6	248	0.0	991.3	0	0.000	0.0
20091223 06:30	1.9	1.9	1.9	93	0.9	3	6	248	0.0	991.5	0	0.000	0.0
20091223 06:35	2.0	2.0	2.0	93	1.0	5	6	248	0.2	991.5	0	0.000	0.0
20091223 06:40	2.0	2.0	2.0	93	1.0	5	8	248	0.0	991.7	0	0.000	0.0
20091223 06:45	2.1	2.1	2.1	93	1.0	5	8	248	0.0	991.7	0	0.000	0.0
20091223 06:50	2.1	2.1	2.1	93	1.0	5	6	248	0.0	991.8	0	0.000	0.0
20091223 06:55	2.1	2.1	2.1	93	1.1	5	6	248	0.0	991.9	0	0.000	0.0
20091223 07:00	2.2	2.2	2.2	93	1.2	5	6	248	0.0	992.1	0	0.000	0.0
20091223 07:05	2.2	2.2	2.2	93	1.2	3	6	248	0.0	992.1	0	0.000	0.0
20091223 07:10	2.2	2.2	2.2	93	1.2	3	6	248	0.0	992.4	0	0.000	0.0
20091223 07:15	2.2	2.2	2.2	93	1.2	5	6	248	0.0	992.6	0	0.000	0.0
20091223 07:20	2.2	0.4	2.2	93	1.2	6	14	270	0.2	992.8	0	0.000	0.0
20091223 07:25	2.3	-0.1	2.3	93	1.3	8	14	270	0.0	992.9	0	0.000	0.0
20091223 07:30	2.4	0.1	2.4	93	1.4	8	11	270	0.0	993.0	0	0.000	0.0
20091223 07:35	2.5	2.5	2.5	94	1.6	5	10	270	0.0	993.0	0	0.000	0.0
20091223 07:40	2.6	0.8	2.6	94	1.7	6	10	270	0.2	993.1	0	0.000	0.0
20091223 07:45	2.5	0.7	2.5	93	1.5	6	10	270	0.0	993.1	0	0.000	0.0
20091223 07:50	2.5	2.5	2.5	93	1.5	5	10	270	0.0	993.2	0	0.000	0.0
20091223 07:55	2.5	2.5	2.5	93	1.5	5	8	270	0.0	993.3	0	0.000	0.0
20091223 08:00	2.5	0.7	2.5	94	1.6	6	10	270	0.0	993.4	0	0.000	0.0
20091223 08:05	2.6	2.6	2.6	93	1.5	5	10	270	0.0	993.6	0	0.000	0.0
20091223 08:10	2.6	0.8	2.6	94	1.7	6	10	270	0.0	993.6	0	0.000	0.0
20091223 08:15	2.6	0.8	2.6	94	1.7	6	10	270	0.0	993.8	0	0.000	0.0
20091223 08:20	2.6	0.3	2.6	94	1.7	8	16	270	0.0	993.9	0	0.000	0.0
20091223 08:25	2.6	-0.5	2.6	94	1.7	11	18	292	0.0	994.0	5	0.000	0.0
20091223 08:30	2.6	-1.2	2.6	93	1.5	14	19	292	0.0	994.2	9	0.000	0.0
20091223 08:35	2.5	-1.2	2.5	93	1.5	14	23	292	0.0	994.5	10	0.000	0.0
20091223 08:40	2.4	-1.6	2.4	93	1.4	16	24	292	0.0	994.8	18	0.000	0.0
20091223 08:45	2.4	-1.8	2.4	93	1.4	18	29	270	0.0	995.1	25	0.000	0.0
20091223 08:50	2.3	-1.7	2.3	93	1.3	16	26	270	0.0	995.4	26	0.000	0.0
20091223 08:55	2.3	-1.2	2.3	93	1.3	13	23	270	0.0	995.5	24	0.000	0.0
20091223 09:00	2.3	-1.2	2.3	93	1.3	13	26	292	0.0	995.7	26	0.000	0.0
20091223 09:05	2.2	-1.9	2.2	93	1.2	16	26	270	0.0	996.1	27	0.000	0.0
20091223 09:10	2.1	-2.5	2.1	93	1.0	19	29	270	0.0	996.3	27	0.000	0.0
20091223 09:15	2.0	-2.4	2.0	93	1.0	18	29	270	0.0	996.5	12	0.000	0.0
20091223 09:20	1.9	-2.4	1.9	93	0.9	18	26	270	0.0	996.8	14	0.000	0.0
20091223 09:25	1.8	-2.6	1.8	92	0.7	18	27	292	0.0	997.0	20	0.000	0.0
20091223 09:30	1.7	-2.7	1.7	92	0.6	18	27	270	0.0	997.2	34	0.000	0.0
20091223 09:35	1.7	-3.2	1.7	92	0.5	21	31	270	0.0	997.5	27	0.000	0.0
20091223 09:40	1.4	-3.3	1.4	92	0.3	19	29	292	0.0	997.8	15	0.000	0.0
20091223 09:45	1.3	-3.2	1.3	92	0.2	18	37	270	0.0	997.9	24	0.000	0.0
20091223 09:50	1.3	-3.2	1.3	92	0.2	18	34	292	0.0	998.0	59	0.000	0.0
20091223 09:55	1.3	-3.2	1.3	92	0.2	18	34	292	0.0	998.2	95	0.000	0.0
20091223 10:00	1.3	-3.2	1.3	92	0.2	18	31	292	0.0	998.4	75	0.025	0.0
20091223 10:05	1.3	-2.7	1.3	92	0.1	14	24	270	0.0	998.5	68	0.000	0.0
20091223 10:10	1.2	-2.5	1.2	92	0.1	13	24	292	0.0	998.8	52	0.000	0.0
20091223 10:15	1.2	-3.3	1.2	92	0.1	18	27	270	0.0	999.0	42	0.000	0.0
20091223 10:20	1.2	-3.7	1.2	92	0.0	19	29	292	0.0	999.0	45	0.000	0.0
20091223 10:25	1.2	-3.4	1.2	92	0.0	18	32	270	0.0	999.2	41	0.000	0.0
20091223 10:30	1.1	-4.2	1.1	92	-0.1	23	37	292	0.0	999.4	36	0.000	0.0
20091223 10:35	1.0	-4.5	1.0	91	-0.3	24	35	270	0.0	999.6	35	0.000	0.0
20091223 10:40	1.0	-3.6	1.0	91	-0.3	18	32	270	0.0	999.7	48	0.000	0.0
20091223 10:45	1.0	-4.1	1.0	91	-0.3	21	37	270	0.0	999.9	51	0.000	0.0
20091223 10:50	1.0	-3.6	1.0	91	-0.3	18	27	292	0.0	1000.0	58	0.000	0.0
20091223 10:55	1.0	-4.1	1.0	91	-0.3	21	32	270	0.0	1000.2	66	0.000	0.0
20091223 11:00	1.0	-3.9	1.0	91	-0.3	19	31	292	0.0	1000.4	60	0.025	0.0
20091223 11:05	0.9	-3.9	0.9	91	-0.4	19	29	270	0.0	1000.2	61	0.000	0.0
20091223 11:10	0.9	-3.7	0.9	91	-0.4	18	27	292	0.0	1000.3	66	0.000	0.0
20091223 11:15	1.0	-3.6	1.0	91	-0.3	18	27	270	0.0	1000.4	70	0.000	0.0
20091223 11:20	1.0	-2.4	1.0	91	-0.3	11	18	270	0.0	1000.4	95	0.000	0.3
20091223 11:25	1.1	-2.3	1.1	91	-0.2	11	21	248	0.0	1000.5	118	0.000	0.6
20091223 11:30	1.2	-2.6	1.2	91	-0.1	13	21	270	0.0	1000.6	135	0.000	0.6
20091223 11:35	1.3	-1.7	1.3	91	-0.0	10	23	248	0.0	1000.7	122	0.000	0.5
20091223 11:40	1.3	-1.6	1.3	90	-0.1	10	18	292	0.0	1000.6	121	0.000	0.5
20091223 11:45	1.3	-1.2	1.3	90	-0.1	8	16	292	0.0	1000.8	120	0.000	0.6
20091223 11:50	1.3	-2.0	1.3	90	-0.1	11	21	270	0.0	1001.2	95	0.000	0.1
20091223 11:55	1.4	-1.5	1.4	90	-0.0	10	18	292	0.0	1001.3	92	0.000	0.0
20091223 12:00	1.5	-1.0	1.5	89	-0.1	8	16	270	0.0	1001.2	107	0.051	0.3
20091223 12:05	1.5	-1.4	1.5	89	-0.1	10	18	292	0.0	1001.0	72	0.000	0.4
20091223 12:10	1.5	-1.8	1.5	89	-0.1	11	19	292	0.0	1001.2	78	0.000	0.2
20091223 12:15	1.6	-0.4	1.6	89	-0.1	6	14	248	0.0	1001.3	160	0.000	0.5
20091223 12:20	1.7	1.7	1.7	89	0.1	5	10	248	0.0	1001.3	140	0.000	0.5
20091223 12:25	1.8	-0.6	1.8	89	0.2	8	11	292	0.0	1001.3	116	0.000	0.5
20091223 12:30	1.9	0.1	1.9	88	0.2	6	11	292	0.0	1001.3	142	0.000	0.6
20091223 12:35	1.9	0.1	1.9	88	0.2	6	11	292	0.0	1001.5	110	0.000	0.2
20091223 12:40	1.9	-0.5	1.9	88	0.2	8	13	270	0.0	1001.5	63	0.000	0.0
20091223 12:45	1.9	1.9	1.9	88	0.1	5	10	292	0.0	1001.5	60	0.000	0.0
20091223 12:50	1.9	1.9	1.9	88	0.2	5	6	292	0.0	1001.4	103	0.000	0.1
20091223 12:55	2.1	2.1	2.1	88	0.3	5	8	292	0.0	1001.4	141	0.000	0.5
20091223 13:00	2.2	2.2	2.2	87	0.2	5	8	292	0.0	1001.4	132	0.051	0.5
20091223 13:05	2.2	0.4	2.2	87	0.3	6	11	292	0.0	1001.5	126	0.000	0.5
20091223 13:10	2.3	2.3	2.3	87	0.3	3	6	270	0.0	1001.5	116	0.000	0.4
20091223 13:15	2.3	2.3	2.3	87	0.4	3	8	270	0.0	1001.5	100	0.000	0.0
20091223 13:20	2.3	2.3	2.3	86	0.2	3	5	270	0.0	1001.4	107	0.000	0.0
20091223 13:25	2.3	2.3	2.3	87	0.4	2	5	270	0.0	1001.5	97	0.000	0.0
20091223 13:30	2.4	2.4	2.4	86	0.3	3	8	248	0.0	1001.5	92	0.000	0.0
20091223 13:35	2.4	2.4	2.4	86	0.3	3	6	248	0.0	1001.7	80	0.000	0.0
20091223 13:40	2.4	2.4	2.4	86	0.3	3	8	248	0.0	1001.8	82	0.000	0.0
20091223 13:45	2.4	2.4	2.4	86	0.3	3	6	248	0.0	1001.8	79	0.000	0.0
20091223 13:50	2.4	2.4	2.4	86	0.3	0	3	248	0.0	1001.6	83	0.000	0.0
20091223 13:55	2.5	2.5	2.5	86	0.4	0	3	248	0.0	1001.5	84	0.000	0.0
20091223 14:00	2.6	2.6	2.6	86	0.5	0	0	-100000	0.0	1001.5	91	0.051	0.0
20091223 14:05	2.7	2.7	2.7	85	0.5	0	2	248	0.0	1001.4	90	0.000	0.0
20091223 14:10	2.8	2.8	2.8	85	0.5	0	2	248	0.0	1001.3	95	0.000	0.0
20091223 14:15	2.8	2.8	2.8	85	0.6	0	0	-100000	0.0	1001.2	132	0.000	0.0
20091223 14:20	2.8	2.8	2.8	85	0.6	0	0	-100000	0.0	1000.9	105	0.000	0.0
20091223 14:25	2.8	2.8	2.8	84	0.3	0	0	-100000	0.0	1001.1	92	0.000	0.0
20091223 14:30	2.7	2.7	2.7	84	0.3	0	3	248	0.0	1001.1	98	0.000	0.0
20091223 14:35	2.6	2.6	2.6	84	0.2	3	5	248	0.0	1001.0	101	0.000	0.0
20091223 14:40	2.5	2.5	2.5	85	0.2	3	5	248	0.0	1001.0	94	0.000	0.0
20091223 14:45	2.4	2.4	2.4	85	0.2	2	5	248	0.0	1001.4	92	0.000	0.0
20091223 14:50	2.4	2.4	2.4	85	0.1	3	6	248	0.0	1001.4	87	0.000	0.0
20091223 14:55	2.3	2.3	2.3	86	0.2	2	3	248	0.0	1001.6	74	0.000	0.0
20091223 15:00	2.3	2.3	2.3	86	0.2	0	2	248	0.0	1001.8	59	0.025	0.0
20091223 15:05	2.3	2.3	2.3	86	0.2	0	2	248	0.0	1002.0	50	0.000	0.0
20091223 15:10	2.2	2.2	2.2	86	0.1	0	2	248	0.0	1002.0	42	0.000	0.0
20091223 15:15	2.2	2.2	2.2	86	0.1	0	0	-100000	0.0	1001.9	40	0.000	0.0
20091223 15:20	2.1	2.1	2.1	86	0.0	0	0	-100000	0.0	1002.0	30	0.000	0.0
20091223 15:25	2.1	2.1	2.1	86	0.0	0	5	248	0.0	1002.1	23	0.000	0.0
20091223 15:30	2.1	2.1	2.1	86	-0.0	2	3	248	0.0	1002.3	17	0.000	0.0
20091223 15:35	2.1	2.1	2.1	87	0.1	2	5	248	0.0	1002.3	13	0.000	0.0
20091223 15:40	2.0	2.0	2.0	87	0.1	3	5	248	0.0	1002.2	14	0.000	0.0
20091223 15:45	1.9	1.9	1.9	87	0.0	0	3	248	0.0	1002.3	12	0.000	0.0
20091223 15:50	1.9	1.9	1.9	87	0.0	0	0	-100000	0.0	1002.3	12	0.000	0.0
20091223 15:55	1.9	1.9	1.9	87	-0.0	2	5	248	0.0	1002.4	12	0.000	0.0
20091223 16:00	1.8	1.8	1.8	87	-0.1	3	6	248	0.0	1002.3	11	0.000	0.0
20091223 16:05	1.8	1.8	1.8	88	0.0	3	5	248	0.0	1002.4	10	0.000	0.0
20091223 16:10	1.7	1.7	1.7	88	-0.0	2	6	248	0.0	1002.3	5	0.000	0.0
20091223 16:15	1.7	1.7	1.7	88	-0.1	2	5	248	0.0	1002.3	0	0.000	0.0
20091223 16:20	1.6	1.6	1.6	88	-0.2	2	5	248	0.0	1002.3	0	0.000	0.0
20091223 16:25	1.5	1.5	1.5	89	-0.1	2	6	248	0.0	1002.3	0	0.000	0.0
20091223 16:30	1.4	1.4	1.4	89	-0.2	2	5	248	0.0	1002.4	0	0.000	0.0
20091223 16:35	1.3	1.3	1.3	89	-0.3	3	6	248	0.0	1002.5	0	0.000	0.0
20091223 16:40	1.3	1.3	1.3	89	-0.3	3	6	248	0.0	1002.6	0	0.000	0.0
20091223 16:45	1.3	1.3	1.3	89	-0.3	2	5	248	0.0	1002.5	0	0.000	0.0
20091223 16:50	1.3	1.3	1.3	89	-0.3	0	2	248	0.0	1002.5	0	0.000	0.0
20091223 16:55	1.3	1.3	1.3	89	-0.3	2	5	248	0.0	1002.3	0	0.000	0.0
20091223 17:00	1.3	1.3	1.3	89	-0.3	0	5	248	0.0	1002.4	0	0.000	0.0
20091223 17:05	1.3	1.3	1.3	90	-0.2	0	3	248	0.0	1002.4	0	0.000	0.0
20091223 17:10	1.3	1.3	1.3	90	-0.2	2	3	248	0.0	1002.3	0	0.000	0.0
20091223 17:15	1.3	1.3	1.3	90	-0.2	2	3	248	0.0	1002.3	0	0.000	0.0
20091223 17:20	1.3	1.3	1.3	90	-0.1	3	6	248	0.0	1002.5	0	0.000	0.0
20091223 17:25	1.3	1.3	1.3	90	-0.1	3	6	248	0.0	1002.5	0	0.000	0.0
20091223 17:30	1.3	1.3	1.3	90	-0.1	3	6	248	0.0	1002.3	0	0.000	0.0
20091223 17:35	1.3	1.3	1.3	90	-0.1	5	6	248	0.0	1002.2	0	0.000	0.0
20091223 17:40	1.3	1.3	1.3	90	-0.2	5	6	248	0.0	1002.2	0	0.000	0.0
20091223 17:45	1.2	1.2	1.2	90	-0.2	3	5	248	0.0	1002.3	0	0.000	0.0
20091223 17:50	1.2	1.2	1.2	90	-0.3	2	5	135	0.0	1002.2	0	0.000	0.0
20091223 17:55	1.1	1.1	1.1	90	-0.3	3	5	135	0.0	1002.1	0	0.000	0.0
20091223 18:00	1.1	1.1	1.1	91	-0.2	3	6	135	0.0	1002.1	0	0.000	0.0
20091223 18:05	1.1	1.1	1.1	91	-0.2	2	5	68	0.0	1002.1	0	0.000	0.0
20091223 18:10	1.1	1.1	1.1	91	-0.2	2	3	68	0.0	1002.1	0	0.000	0.0
20091223 18:15	1.0	1.0	1.0	91	-0.3	2	5	68	0.0	1002.1	0	0.000	0.0
20091223 18:20	1.0	1.0	1.0	91	-0.3	2	5	68	0.0	1002.2	0	0.000	0.0
20091223 18:25	1.0	1.0	1.0	91	-0.3	3	5	68	0.0	1002.2	0	0.000	0.0
20091223 18:30	1.0	1.0	1.0	91	-0.3	3	6	112	0.0	1002.2	0	0.000	0.0
20091223 18:35	0.9	0.9	0.9	91	-0.4	5	6	135	0.0	1002.0	0	0.000	0.0
20091223 18:40	0.9	0.9	0.9	91	-0.4	3	6	135	0.0	1002.0	0	0.000	0.0
20091223 18:45	0.8	0.8	0.8	91	-0.5	0	2	135	0.0	1001.7	0	0.000	0.0
20091223 18:50	0.8	0.8	0.8	91	-0.5	2	5	135	0.0	1001.7	0	0.000	0.0
20091223 18:55	0.8	0.8	0.8	91	-0.5	2	5	135	0.0	1001.6	0	0.000	0.0
20091223 19:00	0.8	0.8	0.8	91	-0.5	3	6	135	0.0	1001.6	0	0.000	0.0
20091223 19:05	0.8	0.8	0.8	91	-0.5	3	6	135	0.0	1001.4	0	0.000	0.0
20091223 19:10	0.7	0.7	0.7	91	-0.6	0	3	135	0.0	1001.3	0	0.000	0.0
20091223 19:15	0.7	0.7	0.7	91	-0.6	0	3	135	0.0	1001.3	0	0.000	0.0
20091223 19:20	0.7	0.7	0.7	91	-0.6	2	5	135	0.0	1001.3	0	0.000	0.0
20091223 19:25	0.7	0.7	0.7	91	-0.6	3	8	135	0.0	1001.3	0	0.000	0.0
20091223 19:30	0.7	-1.3	0.7	92	-0.4	6	8	135	0.0	1001.3	0	0.000	0.0
20091223 19:35	0.7	0.7	0.7	92	-0.5	3	6	135	0.0	1001.2	0	0.000	0.0
20091223 19:40	0.6	0.6	0.6	92	-0.5	3	6	135	0.0	1001.1	0	0.000	0.0
20091223 19:45	0.6	-1.5	0.6	92	-0.5	6	10	135	0.0	1000.8	0	0.000	0.0
20091223 19:50	0.6	-1.5	0.6	92	-0.5	6	11	135	0.0	1000.7	0	0.000	0.0
20091223 19:55	0.7	-2.4	0.7	92	-0.5	10	14	112	0.0	1000.6	0	0.000	0.0
20091223 20:00	0.7	-2.8	0.7	92	-0.5	11	21	112	0.0	1000.5	0	0.000	0.0
20091223 20:05	0.7	-3.4	0.7	92	-0.4	14	21	112	0.0	1000.4	0	0.000	0.0
20091223 20:10	0.7	-3.4	0.7	92	-0.4	14	24	112	0.0	1000.3	0	0.000	0.0
20091223 20:15	0.8	-2.7	0.8	92	-0.4	11	19	112	0.0	1000.2	0	0.000	0.0
20091223 20:20	0.8	-2.3	0.8	91	-0.5	10	19	112	0.0	1000.2	0	0.000	0.0
20091223 20:25	0.8	-1.8	0.8	91	-0.5	8	16	112	0.0	999.9	0	0.000	0.0
20091223 20:30	0.8	-1.8	0.8	91	-0.5	8	16	112	0.0	999.9	0	0.000	0.0
20091223 20:35	0.8	-1.8	0.8	91	-0.5	8	18	112	0.0	999.8	0	0.000	0.0
20091223 20:40	0.9	-1.7	0.9	91	-0.4	8	18	135	0.0	999.7	0	0.000	0.0
20091223 20:45	0.9	-1.2	0.9	91	-0.4	6	16	135	0.0	999.7	0	0.000	0.0
20091223 20:50	0.9	-1.7	0.9	91	-0.4	8	14	112	0.0	999.6	0	0.000	0.0
20091223 20:55	0.9	-2.1	0.9	91	-0.4	10	18	135	0.0	999.8	0	0.000	0.0
20091223 21:00	0.9	-1.1	0.9	91	-0.4	6	13	135	0.0	999.8	0	0.000	0.0
20091223 21:05	0.9	-1.6	0.9	91	-0.4	8	13	112	0.0	999.8	0	0.000	0.0
20091223 21:10	0.9	-1.6	0.9	91	-0.4	8	19	112	0.0	999.8	0	0.000	0.0
20091223 21:15	0.9	-1.6	0.9	91	-0.4	8	18	135	0.0	999.8	0	0.000	0.0
20091223 21:20	0.9	0.9	0.9	91	-0.4	5	10	135	0.0	999.7	0	0.000	0.0
20091223 21:25	0.9	0.9	0.9	91	-0.4	5	10	112	0.0	999.7	0	0.000	0.0
20091223 21:30	0.9	0.9	0.9	91	-0.4	2	5	112	0.0	999.7	0	0.000	0.0
20091223 21:35	0.9	0.9	0.9	91	-0.4	2	10	90	0.0	999.7	0	0.000	0.0
20091223 21:40	0.9	0.9	0.9	91	-0.4	3	8	90	0.0	999.8	0	0.000	0.0
20091223 21:45	0.9	0.9	0.9	91	-0.4	3	6	135	0.0	999.7	0	0.000	0.0
20091223 21:50	0.9	0.9	0.9	91	-0.4	2	6	135	0.0	999.5	0	0.000	0.0
20091223 21:55	0.8	0.8	0.8	91	-0.5	3	8	112	0.0	999.6	0	0.000	0.0
20091223 22:00	0.8	0.8	0.8	91	-0.5	5	10	112	0.0	999.5	0	0.000	0.0
20091223 22:05	0.9	0.9	0.9	90	-0.6	3	8	68	0.0	999.4	0	0.000	0.0
20091223 22:10	0.8	0.8	0.8	90	-0.6	3	6	68	0.0	999.4	0	0.000	0.0
20091223 22:15	0.9	0.9	0.9	91	-0.4	3	6	135	0.0	999.4	0	0.000	0.0
20091223 22:20	0.8	0.8	0.8	90	-0.6	3	8	90	0.0	999.3	0	0.000	0.0
20091223 22:25	0.8	0.8	0.8	90	-0.6	3	6	90	0.0	999.0	0	0.000	0.0
20091223 22:30	0.8	0.8	0.8	90	-0.7	5	11	90	0.0	999.1	0	0.000	0.0
20091223 22:35	0.8	0.8	0.8	90	-0.7	2	8	90	0.0	999.1	0	0.000	0.0
20091223 22:40	0.7	0.7	0.7	90	-0.7	3	11	90	0.0	999.1	0	0.000	0.0
20091223 22:45	0.7	0.7	0.7	90	-0.7	3	10	90	0.0	999.0	0	0.000	0.0
20091223 22:50	0.7	0.7	0.7	90	-0.7	5	16	112	0.0	998.9	0	0.000	0.0
20091223 22:55	0.7	0.7	0.7	90	-0.7	5	10	112	0.0	998.9	0	0.000	0.0
20091223 23:00	0.7	0.7	0.7	90	-0.7	5	14	135	0.0	998.9	0	0.000	0.0
20091223 23:05	0.7	0.7	0.7	90	-0.8	5	10	135	0.0	998.6	0	0.000	0.0
20091223 23:10	0.6	0.6	0.6	91	-0.7	5	10	112	0.0	998.5	0	0.000	0.0
20091223 23:15	0.6	-2.0	0.6	91	-0.7	8	16	112	0.0	998.5	0	0.000	0.0
20091223 23:20	0.7	-2.0	0.7	91	-0.6	8	21	135	0.0	998.5	0	0.000	0.0
20091223 23:25	0.6	0.6	0.6	91	-0.7	3	8	112	0.0	998.3	0	0.000	0.0
20091223 23:30	0.6	0.6	0.6	91	-0.7	3	6	158	0.0	998.3	0	0.000	0.0
20091223 23:35	0.6	0.6	0.6	91	-0.7	5	8	112	0.0	998.2	0	0.000	0.0
20091223 23:40	0.6	0.6	0.6	91	-0.7	5	8	90	0.0	998.2	0	0.000	0.0
20091223 23:45	0.6	0.6	0.6	91	-0.7	3	8	90	0.0	998.1	0	0.000	0.0
20091223 23:50	0.6	0.6	0.6	91	-0.7	5	10	112	0.0	998.0	0	0.000	0.0
20091223 23:55	0.6	-2.1	0.6	91	-0.7	8	16	112	0.0	997.9	0	0.000	0.0



Please note the license to use and transfer of this data:
http://creativecommons.org/licenses/by-nc-sa/3.0/deed.en

Bitte beachten sie die Lizenz zur Verwertung und Weitergabe der Daten:
http://creativecommons.org/licenses/by-nc-sa/3.0/deed.de

zurück zur Übersicht der Archivdaten (Monats und Tagesdaten)

Cookies helfen bei der Bereitstellung von Inhalten. Durch die Nutzung dieser Seiten erklärst du dich damit einverstanden, dass Cookies auf deinem Rechner gespeichert werden. Weitere Information